createdAt,value
2022-08-17T00:00:13.615Z,22.60
2022-08-17T00:03:02.782Z,22.57
2022-08-17T00:05:32.711Z,22.57
2022-08-17T00:08:01.557Z,22.53
2022-08-17T00:10:29.202Z,22.53
2022-08-17T00:12:59.805Z,22.51
2022-08-17T00:15:27.770Z,22.51
2022-08-17T00:17:55.296Z,22.49
2022-08-17T00:20:23.454Z,22.45
2022-08-17T00:23:13.453Z,22.37
2022-08-17T00:25:41.529Z,22.33
2022-08-17T00:28:09.442Z,22.26
2022-08-17T00:30:50.880Z,22.19
2022-08-17T00:33:26.126Z,22.15
2022-08-17T00:35:54.786Z,22.09
2022-08-17T00:38:24.399Z,22.01
2022-08-17T00:40:55.978Z,21.93
2022-08-17T00:43:32.729Z,21.86
2022-08-17T00:46:02.317Z,21.83
2022-08-17T00:48:30.904Z,21.77
2022-08-17T00:51:04.685Z,21.75
2022-08-17T00:53:36.497Z,21.72
2022-08-17T00:56:09.349Z,21.68
2022-08-17T00:58:38.299Z,21.64
2022-08-17T01:01:09.011Z,21.61
2022-08-17T01:03:38.169Z,21.58
2022-08-17T01:06:09.050Z,21.57
2022-08-17T01:08:40.943Z,21.56
2022-08-17T01:11:09.030Z,21.56
2022-08-17T01:13:41.712Z,21.55
2022-08-17T01:16:15.870Z,21.56
2022-08-17T01:18:44.767Z,21.56
2022-08-17T01:21:19.468Z,21.56
2022-08-17T01:23:48.330Z,21.54
2022-08-17T01:26:16.432Z,21.53
2022-08-17T01:28:54.066Z,21.52
2022-08-17T01:31:24.944Z,21.51
2022-08-17T01:33:52.528Z,21.50
2022-08-17T01:36:20.544Z,21.50
2022-08-17T01:38:49.482Z,21.49
2022-08-17T01:41:17.699Z,21.48
2022-08-17T01:43:48.798Z,21.46
2022-08-17T01:46:20.069Z,21.47
2022-08-17T01:48:48.402Z,21.48
2022-08-17T01:51:16.636Z,21.51
2022-08-17T01:53:48.337Z,21.52
2022-08-17T01:56:21.094Z,21.53
2022-08-17T01:58:48.652Z,21.53
2022-08-17T02:01:17.789Z,21.55
2022-08-17T02:03:59.149Z,21.55
2022-08-17T02:06:30.340Z,21.53
2022-08-17T02:09:02.894Z,21.53
2022-08-17T02:11:34.240Z,21.54
2022-08-17T02:14:04.059Z,21.53
2022-08-17T02:16:36.781Z,21.53
2022-08-17T02:19:08.188Z,21.55
2022-08-17T02:21:36.195Z,21.56
2022-08-17T02:24:05.838Z,21.58
2022-08-17T02:26:34.802Z,21.58
2022-08-17T02:29:04.001Z,21.56
2022-08-17T02:31:31.980Z,21.56
2022-08-17T02:34:04.543Z,21.55
2022-08-17T02:36:33.578Z,21.55
2022-08-17T02:39:01.634Z,21.53
2022-08-17T02:41:29.368Z,21.51
2022-08-17T02:43:58.580Z,21.49
2022-08-17T02:46:26.496Z,21.49
2022-08-17T02:48:54.085Z,21.49
2022-08-17T02:51:21.590Z,21.48
2022-08-17T02:53:49.102Z,21.49
2022-08-17T02:56:16.864Z,21.45
2022-08-17T02:58:44.387Z,21.42
2022-08-17T03:01:13.585Z,21.37
2022-08-17T03:03:41.649Z,21.37
2022-08-17T03:06:09.983Z,21.39
2022-08-17T03:08:38.153Z,21.39
2022-08-17T03:11:05.959Z,21.38
2022-08-17T03:13:34.066Z,21.38
2022-08-17T03:16:01.573Z,21.39
2022-08-17T03:18:30.408Z,21.40
2022-08-17T03:21:00.952Z,21.44
2022-08-17T03:23:30.348Z,21.46
2022-08-17T03:25:58.442Z,21.50
2022-08-17T03:28:28.141Z,21.55
2022-08-17T03:30:55.754Z,21.59
2022-08-17T03:33:23.691Z,21.60
2022-08-17T03:35:52.736Z,21.58
2022-08-17T03:38:20.436Z,21.55
2022-08-17T03:40:58.921Z,21.53
2022-08-17T03:43:29.466Z,21.51
2022-08-17T03:46:34.778Z,21.50
2022-08-17T03:49:20.012Z,21.49
2022-08-17T03:52:18.129Z,21.46
2022-08-17T03:55:04.329Z,21.42
2022-08-17T03:57:32.249Z,21.37
2022-08-17T03:59:59.826Z,21.36
2022-08-17T04:02:30.119Z,21.35
2022-08-17T04:04:58.272Z,21.35
2022-08-17T04:07:30.008Z,21.33
2022-08-17T04:09:59.325Z,21.31
2022-08-17T04:12:30.701Z,21.27
2022-08-17T04:14:58.577Z,21.20
2022-08-17T04:17:28.203Z,21.13
2022-08-17T04:19:56.669Z,21.08
2022-08-17T04:22:30.930Z,21.09
2022-08-17T04:25:03.869Z,21.10
2022-08-17T04:27:31.736Z,21.11
2022-08-17T04:29:59.496Z,21.11
2022-08-17T04:33:04.429Z,21.11
2022-08-17T04:35:19.196Z,21.09
2022-08-17T04:37:47.354Z,21.10
2022-08-17T04:40:34.549Z,21.10
2022-08-17T04:43:03.654Z,21.09
2022-08-17T04:45:32.395Z,21.08
2022-08-17T04:48:00.593Z,21.06
2022-08-17T04:50:28.195Z,21.05
2022-08-17T04:52:55.972Z,21.04
2022-08-17T04:55:24.962Z,21.05
2022-08-17T04:57:52.472Z,21.04
2022-08-17T05:00:20.278Z,21.02
2022-08-17T05:02:50.475Z,21.02
2022-08-17T05:05:20.816Z,21.00
2022-08-17T05:07:48.624Z,20.98
2022-08-17T05:10:16.330Z,20.97
2022-08-17T05:12:45.340Z,20.95
2022-08-17T05:15:16.014Z,20.94
2022-08-17T05:17:43.636Z,20.93
2022-08-17T05:20:12.054Z,20.92
2022-08-17T05:22:50.127Z,20.84
2022-08-17T05:25:20.653Z,20.81
2022-08-17T05:27:55.351Z,20.76
2022-08-17T05:30:24.395Z,20.72
2022-08-17T05:32:54.066Z,20.70
2022-08-17T05:35:22.318Z,20.72
2022-08-17T05:37:50.713Z,20.74
2022-08-17T05:40:19.885Z,20.77
2022-08-17T05:42:47.863Z,20.82
2022-08-17T05:45:55.319Z,20.86
2022-08-17T05:48:08.239Z,20.89
2022-08-17T05:50:45.257Z,20.92
2022-08-17T05:53:20.337Z,20.97
2022-08-17T05:55:58.126Z,20.99
2022-08-17T05:58:41.936Z,21.03
2022-08-17T06:01:25.885Z,21.06
2022-08-17T06:04:01.594Z,21.09
2022-08-17T06:06:39.764Z,21.12
2022-08-17T06:09:24.777Z,21.15
2022-08-17T06:11:58.657Z,21.21
2022-08-17T06:14:36.210Z,21.29
2022-08-17T06:17:09.127Z,21.37
2022-08-17T06:19:41.672Z,21.45
2022-08-17T06:22:10.837Z,21.51
2022-08-17T06:24:43.192Z,21.58
2022-08-17T06:27:17.418Z,21.67
2022-08-17T06:29:53.925Z,21.75
2022-08-17T06:32:22.911Z,21.80
2022-08-17T06:34:50.590Z,21.86
2022-08-17T06:37:48.748Z,21.92
2022-08-17T06:40:30.690Z,22.00
2022-08-17T06:43:15.350Z,22.09
2022-08-17T06:45:49.046Z,22.17
2022-08-17T06:48:25.432Z,22.26
2022-08-17T06:50:59.859Z,22.32
2022-08-17T06:53:32.402Z,22.41
2022-08-17T06:56:05.905Z,22.51
2022-08-17T06:58:35.709Z,22.60
2022-08-17T07:01:10.624Z,22.71
2022-08-17T07:03:49.801Z,22.81
2022-08-17T07:06:20.589Z,22.91
2022-08-17T07:08:56.172Z,23.01
2022-08-17T07:11:28.359Z,23.12
2022-08-17T07:14:00.990Z,23.22
2022-08-17T07:16:33.359Z,23.31
2022-08-17T07:19:02.274Z,23.42
2022-08-17T07:21:41.551Z,23.52
2022-08-17T07:24:30.280Z,23.66
2022-08-17T07:27:11.140Z,23.81
2022-08-17T07:29:42.374Z,23.92
2022-08-17T07:32:11.277Z,24.04
2022-08-17T07:35:13.058Z,24.16
2022-08-17T07:37:45.494Z,24.31
2022-08-17T07:40:33.391Z,24.44
2022-08-17T07:43:22.417Z,24.58
2022-08-17T07:46:21.170Z,24.68
2022-08-17T07:48:51.714Z,24.81
2022-08-17T07:51:25.220Z,24.91
2022-08-17T07:53:54.473Z,25.03
2022-08-17T07:56:41.145Z,25.15
2022-08-17T07:59:12.123Z,25.24
2022-08-17T08:01:42.045Z,25.37
2022-08-17T08:04:49.915Z,25.46
2022-08-17T08:07:31.966Z,25.58
2022-08-17T08:10:10.623Z,25.67
2022-08-17T08:12:41.694Z,25.77
2022-08-17T08:15:17.708Z,25.87
2022-08-17T08:17:54.321Z,25.96
2022-08-17T08:20:37.750Z,26.04
2022-08-17T08:23:29.499Z,26.16
2022-08-17T08:26:13.150Z,26.28
2022-08-17T08:28:52.119Z,26.43
2022-08-17T08:31:31.472Z,26.56
2022-08-17T08:34:59.057Z,26.69
2022-08-17T08:37:17.799Z,26.85
2022-08-17T08:40:03.328Z,27.04
2022-08-17T08:42:42.718Z,27.17
2022-08-17T08:45:16.075Z,27.26
2022-08-17T08:48:05.509Z,27.36
2022-08-17T08:50:42.769Z,27.46
2022-08-17T08:53:23.593Z,27.56
2022-08-17T08:55:59.729Z,27.66
2022-08-17T08:58:41.367Z,27.70
2022-08-17T09:01:18.297Z,27.74
2022-08-17T09:04:21.361Z,27.83
2022-08-17T09:07:01.496Z,27.96
2022-08-17T09:09:42.962Z,28.10
2022-08-17T09:12:18.461Z,28.21
2022-08-17T09:14:55.859Z,28.31
2022-08-17T09:17:31.206Z,28.42
2022-08-17T09:20:04.774Z,28.50
2022-08-17T09:22:38.052Z,28.62
2022-08-17T09:25:10.841Z,28.73
2022-08-17T09:27:51.431Z,28.85
2022-08-17T09:30:19.617Z,28.93
2022-08-17T09:32:51.984Z,29.03
2022-08-17T09:35:23.748Z,29.10
2022-08-17T09:38:00.390Z,29.19
2022-08-17T09:40:33.524Z,29.30
2022-08-17T09:43:08.771Z,29.43
2022-08-17T09:45:42.586Z,29.50
2022-08-17T09:48:19.138Z,29.50
2022-08-17T09:51:03.984Z,29.51
2022-08-17T09:53:33.647Z,29.56
2022-08-17T09:56:17.626Z,29.56
2022-08-17T09:59:14.460Z,29.55
2022-08-17T10:01:48.055Z,29.54
2022-08-17T10:04:33.375Z,29.50
2022-08-17T10:07:08.326Z,29.46
2022-08-17T10:09:49.420Z,29.42
2022-08-17T10:12:30.063Z,29.38
2022-08-17T10:15:09.923Z,29.31
2022-08-17T10:17:50.767Z,29.26
2022-08-17T10:20:24.228Z,29.24
2022-08-17T10:23:14.753Z,29.20
2022-08-17T10:26:08.885Z,29.14
2022-08-17T10:28:41.434Z,29.11
2022-08-17T10:34:08.256Z,29.06
2022-08-17T10:36:43.142Z,28.99
2022-08-17T10:39:21.157Z,28.93
2022-08-17T10:41:52.826Z,28.91
2022-08-17T10:44:40.425Z,28.90
2022-08-17T10:47:13.687Z,28.89
2022-08-17T10:49:45.650Z,28.91
2022-08-17T10:52:31.871Z,28.99
2022-08-17T10:55:14.814Z,29.06
2022-08-17T10:57:45.368Z,29.11
2022-08-17T11:00:36.064Z,29.17
2022-08-17T11:03:19.626Z,29.27
2022-08-17T11:06:00.950Z,29.38
2022-08-17T11:08:53.458Z,29.55
2022-08-17T11:11:47.471Z,29.75
2022-08-17T11:14:30.774Z,29.88
2022-08-17T11:17:13.044Z,29.96
2022-08-17T11:20:15.452Z,30.06
2022-08-17T11:23:27.036Z,30.19
2022-08-17T11:25:56.328Z,30.23
2022-08-17T11:28:28.006Z,30.25
2022-08-17T11:30:58.855Z,30.27
2022-08-17T11:34:04.591Z,30.25
2022-08-17T11:36:52.751Z,30.19
2022-08-17T11:39:36.826Z,30.14
2022-08-17T11:42:11.709Z,30.14
2022-08-17T11:44:47.815Z,30.18
2022-08-17T11:47:39.355Z,30.24
2022-08-17T11:50:41.303Z,30.27
2022-08-17T11:53:48.553Z,30.32
2022-08-17T11:56:34.546Z,30.35
2022-08-17T11:59:03.009Z,30.39
2022-08-17T12:01:52.670Z,30.43
2022-08-17T12:04:27.905Z,30.48
2022-08-17T12:06:59.986Z,30.51
2022-08-17T12:09:31.730Z,30.49
2022-08-17T12:12:13.351Z,30.45
2022-08-17T12:17:41.163Z,30.26
2022-08-17T12:20:24.027Z,30.13
2022-08-17T12:23:01.190Z,30.05
2022-08-17T12:25:35.009Z,30.01
2022-08-17T12:28:07.596Z,29.93
2022-08-17T12:30:37.371Z,29.88
2022-08-17T12:33:12.241Z,29.78
2022-08-17T12:35:39.867Z,29.66
2022-08-17T12:38:26.637Z,29.55
2022-08-17T12:40:59.729Z,29.46
2022-08-17T12:43:32.779Z,29.39
2022-08-17T12:46:13.291Z,29.34
2022-08-17T12:48:59.157Z,29.27
2022-08-17T12:51:28.983Z,29.22
2022-08-17T12:53:57.515Z,29.18
2022-08-17T12:56:25.545Z,29.15
2022-08-17T12:58:55.550Z,29.13
2022-08-17T13:01:25.116Z,29.12
2022-08-17T13:03:59.651Z,29.11
2022-08-17T13:06:30.169Z,29.10
2022-08-17T13:08:57.833Z,29.08
2022-08-17T13:11:25.872Z,29.05
2022-08-17T13:13:56.928Z,29.06
2022-08-17T13:16:26.839Z,29.07
2022-08-17T13:19:05.189Z,29.09
2022-08-17T13:21:33.857Z,29.08
2022-08-17T13:24:04.642Z,29.08
2022-08-17T13:26:35.169Z,29.07
2022-08-17T13:29:07.626Z,29.07
2022-08-17T13:31:52.187Z,29.07
2022-08-17T13:34:56.146Z,29.10
2022-08-17T13:37:30.784Z,29.11
2022-08-17T13:40:00.777Z,29.15
2022-08-17T13:42:35.127Z,29.17
2022-08-17T13:45:50.413Z,29.20
2022-08-17T13:48:26.805Z,29.16
2022-08-17T13:51:12.637Z,29.16
2022-08-17T13:54:01.195Z,29.19
2022-08-17T13:56:37.587Z,29.20
2022-08-17T13:59:11.140Z,29.22
2022-08-17T14:01:41.153Z,29.23
2022-08-17T14:04:12.091Z,29.20
2022-08-17T14:06:52.920Z,29.17
2022-08-17T14:09:24.496Z,29.16
2022-08-17T14:11:54.357Z,29.15
2022-08-17T14:14:24.117Z,29.11
2022-08-17T14:16:53.651Z,29.06
2022-08-17T14:19:22.113Z,29.00
2022-08-17T14:21:50.141Z,28.92
2022-08-17T14:24:23.135Z,28.89
2022-08-17T14:26:52.282Z,28.85
2022-08-17T14:29:20.571Z,28.84
2022-08-17T14:31:49.652Z,28.83
2022-08-17T14:34:23.614Z,28.80
2022-08-17T14:36:51.317Z,28.77
2022-08-17T14:39:19.735Z,28.74
2022-08-17T14:41:47.380Z,28.72
2022-08-17T14:44:16.733Z,28.70
2022-08-17T14:46:45.703Z,28.68
2022-08-17T14:49:15.574Z,28.66
2022-08-17T14:51:44.799Z,28.66
2022-08-17T14:54:28.861Z,28.62
2022-08-17T14:57:22.635Z,28.59
2022-08-17T14:59:54.973Z,28.55
2022-08-17T15:02:30.013Z,28.51
2022-08-17T15:04:59.973Z,28.47
2022-08-17T15:07:30.665Z,28.45
2022-08-17T15:10:00.920Z,28.43
2022-08-17T15:12:32.735Z,28.39
2022-08-17T15:15:01.545Z,28.36
2022-08-17T15:17:45.125Z,28.33
2022-08-17T15:20:17.426Z,28.30
2022-08-17T15:22:49.529Z,28.28
2022-08-17T15:25:18.870Z,28.25
2022-08-17T15:27:47.426Z,28.23
2022-08-17T15:30:15.750Z,28.22
2022-08-17T15:32:48.195Z,28.20
2022-08-17T15:35:28.380Z,28.20
2022-08-17T15:38:04.521Z,28.19
2022-08-17T15:40:36.647Z,28.20
2022-08-17T15:43:06.226Z,28.19
2022-08-17T15:45:33.993Z,28.19
2022-08-17T15:48:01.564Z,28.20
2022-08-17T15:50:29.205Z,28.21
2022-08-17T15:53:00.564Z,28.19
2022-08-17T15:55:30.923Z,28.17
2022-08-17T15:57:58.698Z,28.18
2022-08-17T16:00:28.376Z,28.17
2022-08-17T16:03:45.128Z,28.17
2022-08-17T16:05:44.213Z,28.16
2022-08-17T16:08:20.663Z,28.16
2022-08-17T16:10:48.825Z,28.13
2022-08-17T16:13:17.474Z,28.13
2022-08-17T16:15:51.064Z,28.13
2022-08-17T16:18:25.749Z,28.14
2022-08-17T16:20:53.605Z,28.18
2022-08-17T16:23:22.539Z,28.21
2022-08-17T16:25:53.587Z,28.25
2022-08-17T16:28:29.873Z,28.26
2022-08-17T16:31:05.781Z,28.28
2022-08-17T16:33:36.388Z,28.30
2022-08-17T16:36:04.336Z,28.33
2022-08-17T16:38:33.222Z,28.34
2022-08-17T16:41:01.472Z,28.33
2022-08-17T16:43:29.218Z,28.34
2022-08-17T16:45:56.812Z,28.32
2022-08-17T16:48:24.375Z,28.33
2022-08-17T16:51:02.922Z,28.33
2022-08-17T16:53:32.981Z,28.32
2022-08-17T16:56:00.512Z,28.30
2022-08-17T16:58:28.245Z,28.27
2022-08-17T17:00:59.645Z,28.27
2022-08-17T17:03:30.203Z,28.25
2022-08-17T17:06:08.881Z,28.24
2022-08-17T17:08:44.503Z,28.23
2022-08-17T17:11:15.658Z,28.21
2022-08-17T17:17:27.362Z,28.19
2022-08-17T17:20:09.554Z,28.18
2022-08-17T17:26:07.709Z,28.14
2022-08-17T17:28:58.472Z,28.13
2022-08-17T17:31:33.772Z,28.10
2022-08-17T17:34:09.440Z,28.09
2022-08-17T17:36:41.828Z,28.07
2022-08-17T17:39:14.423Z,28.06
2022-08-17T17:42:05.758Z,28.04
2022-08-17T17:44:41.331Z,28.03
2022-08-17T17:47:11.735Z,28.01
2022-08-17T17:49:40.855Z,28.01
2022-08-17T17:52:18.386Z,27.98
2022-08-17T17:55:00.398Z,27.94
2022-08-17T17:57:44.100Z,27.90
2022-08-17T18:00:16.512Z,27.88
2022-08-17T18:02:59.614Z,27.85
2022-08-17T18:05:57.244Z,27.83
2022-08-17T18:08:50.716Z,27.79
2022-08-17T18:11:40.390Z,27.74
2022-08-17T18:14:23.506Z,27.72
2022-08-17T18:16:56.699Z,27.68
2022-08-17T18:19:26.124Z,27.65
2022-08-17T18:22:02.059Z,27.62
2022-08-17T18:27:02.505Z,27.58
2022-08-17T18:29:44.806Z,27.57
2022-08-17T18:32:19.126Z,27.56
2022-08-17T18:34:49.040Z,27.52
2022-08-17T18:37:37.378Z,27.51
2022-08-17T18:40:37.617Z,27.48
2022-08-17T18:43:14.937Z,27.46
2022-08-17T18:51:45.621Z,27.38
2022-08-17T19:24:47.650Z,26.68
2022-08-17T19:31:15.589Z,26.49
2022-08-17T19:33:50.587Z,26.45
2022-08-17T19:54:47.946Z,26.14
2022-08-17T20:10:55.280Z,25.86
2022-08-17T20:13:33.152Z,25.82
2022-08-17T20:16:02.350Z,25.78
2022-08-17T20:18:37.674Z,25.70
2022-08-17T20:21:20.192Z,25.61
2022-08-17T20:23:53.531Z,25.53
2022-08-17T20:26:27.434Z,25.42
2022-08-17T20:29:37.295Z,25.27
2022-08-17T20:32:26.244Z,25.17
2022-08-17T20:35:10.291Z,25.08
2022-08-17T20:37:43.125Z,25.03
2022-08-17T20:40:30.152Z,24.97
2022-08-17T20:43:00.591Z,24.97
2022-08-17T20:46:05.719Z,24.96
2022-08-17T20:48:39.318Z,24.92
2022-08-17T20:51:30.052Z,24.88
2022-08-17T20:54:22.380Z,24.82
2022-08-17T20:56:57.638Z,24.75
2022-08-17T21:00:02.818Z,24.68
2022-08-17T21:02:32.227Z,24.62
2022-08-17T21:05:30.174Z,24.57
2022-08-17T21:08:00.457Z,24.50
2022-08-17T21:10:36.844Z,24.46
2022-08-17T21:13:32.445Z,24.46
2022-08-17T21:16:07.830Z,24.44
2022-08-17T21:18:42.293Z,24.43
2022-08-17T21:21:22.505Z,24.41
2022-08-17T21:24:03.723Z,24.40
2022-08-17T21:26:50.718Z,24.41
2022-08-17T21:29:31.888Z,24.44
2022-08-17T21:32:24.412Z,24.48
2022-08-17T21:35:26.681Z,24.49
2022-08-17T21:37:59.934Z,24.46
2022-08-17T21:40:29.622Z,24.47
2022-08-17T21:43:01.099Z,24.51
2022-08-17T21:45:35.030Z,24.52
2022-08-17T21:48:14.516Z,24.48
2022-08-17T21:50:45.102Z,24.44
2022-08-17T21:53:19.390Z,24.40
2022-08-17T21:55:50.221Z,24.34
2022-08-17T21:58:29.122Z,24.33
2022-08-17T22:01:23.331Z,24.35
2022-08-17T22:04:03.250Z,24.38
2022-08-17T22:06:35.604Z,24.43
2022-08-17T22:09:14.425Z,24.47
2022-08-17T22:12:02.022Z,24.51
2022-08-17T22:14:52.217Z,24.51
2022-08-17T22:17:23.615Z,24.48
2022-08-17T22:19:56.276Z,24.42
2022-08-17T22:22:57.722Z,24.39
2022-08-17T22:25:28.033Z,24.31
2022-08-17T22:27:58.402Z,24.25
2022-08-17T22:30:35.298Z,24.23
2022-08-17T22:33:31.271Z,24.23
2022-08-17T22:36:12.243Z,24.20
2022-08-17T22:38:41.369Z,24.13
2022-08-17T22:41:32.010Z,24.06
2022-08-17T22:44:07.246Z,24.00
2022-08-17T22:46:39.798Z,23.97
2022-08-17T22:49:08.016Z,23.92
2022-08-17T22:51:37.941Z,23.84
2022-08-17T22:54:37.401Z,23.75
2022-08-17T22:57:23.795Z,23.66
2022-08-17T22:59:53.479Z,23.60
2022-08-17T23:02:25.137Z,23.53
2022-08-17T23:04:57.406Z,23.47
2022-08-17T23:07:26.173Z,23.43
2022-08-17T23:09:55.099Z,23.38
2022-08-17T23:12:27.009Z,23.34
2022-08-17T23:15:00.441Z,23.31
2022-08-17T23:17:30.413Z,23.29
2022-08-17T23:20:01.465Z,23.31
2022-08-17T23:22:33.767Z,23.30
2022-08-17T23:25:01.283Z,23.29
2022-08-17T23:27:29.344Z,23.30
2022-08-17T23:29:57.110Z,23.34
2022-08-17T23:32:25.753Z,23.32
2022-08-17T23:34:53.308Z,23.24
2022-08-17T23:37:21.225Z,23.19
2022-08-17T23:39:50.108Z,23.20
2022-08-17T23:42:21.611Z,23.19
2022-08-17T23:44:49.427Z,23.18
2022-08-17T23:47:17.246Z,23.19
2022-08-17T23:49:45.505Z,23.14
2022-08-17T23:52:16.520Z,23.13
2022-08-17T23:54:46.563Z,23.17
2022-08-17T23:57:19.746Z,23.19
